Time;durP1;ratioP1;P1;durP2;ratioP2;P2;SDS_P1;SDS_P2;PMS_P1;PMS_P2;Temp;Humidity;BMP_temperature;BMP_pressure;BME280_temperature;BME280_humidity;BME280_pressure;Samples;Min_cycle;Max_cycle;Signal;HPM_P1;HPM_P2
2022/01/29 00:01:45;;;;;;;9.87;6.03;;;3.80;99.90;;;;;;5017009;28;20422;-81
2022/01/29 00:04:30;;;;;;;12.40;7.83;;;3.80;99.90;;;;;;5017338;28;20403;-81
2022/01/29 00:07:15;;;;;;;14.17;8.80;;;3.80;99.90;;;;;;5002215;28;20358;-81
2022/01/29 00:10:04;;;;;;;14.40;9.23;;;3.90;99.90;;;;;;5017131;28;20411;-81
2022/01/29 00:12:48;;;;;;;16.73;9.10;;;3.90;99.90;;;;;;5017945;28;20789;-82
2022/01/29 00:15:32;;;;;;;13.77;8.67;;;3.90;99.90;;;;;;5018140;28;20955;-81
2022/01/29 00:18:17;;;;;;;8.50;7.20;;;4.10;99.90;;;;;;5017760;28;20349;-81
2022/01/29 00:21:02;;;;;;;19.33;10.60;;;4.30;99.90;;;;;;5017550;28;20434;-81
2022/01/29 00:23:47;;;;;;;12.33;8.80;;;4.30;99.90;;;;;;5017613;28;20736;-82
2022/01/29 00:26:31;;;;;;;9.50;8.00;;;4.30;99.90;;;;;;5003164;28;20439;-82
2022/01/29 00:29:20;;;;;;;21.00;10.80;;;4.50;99.90;;;;;;5027000;28;20466;-81
2022/01/29 00:32:06;;;;;;;14.83;8.03;;;4.30;99.90;;;;;;5023924;28;20396;-79
2022/01/29 00:34:50;;;;;;;15.23;8.97;;;4.40;99.90;;;;;;5026857;28;20433;-81
2022/01/29 00:37:35;;;;;;;14.47;8.80;;;4.60;99.90;;;;;;5012170;28;20367;-80
2022/01/29 00:40:21;;;;;;;17.10;9.17;;;4.60;99.90;;;;;;5027466;28;20370;-80
2022/01/29 00:43:06;;;;;;;15.10;8.60;;;4.70;99.90;;;;;;5020856;28;20367;-81
2022/01/29 00:45:50;;;;;;;16.17;10.23;;;4.70;99.90;;;;;;5017118;28;20721;-81
2022/01/29 00:48:35;;;;;;;13.33;8.50;;;4.70;99.90;;;;;;5002098;28;20413;-81
2022/01/29 00:51:21;;;;;;;14.63;8.30;;;4.70;99.90;;;;;;5002160;28;20905;-81
2022/01/29 00:54:06;;;;;;;13.80;8.67;;;4.60;99.90;;;;;;5017771;28;20482;-81
2022/01/29 00:56:50;;;;;;;12.30;7.63;;;4.60;99.90;;;;;;5001568;28;20387;-81
2022/01/29 00:59:35;;;;;;;15.20;7.20;;;4.60;99.90;;;;;;5002592;28;20419;-81
2022/01/29 01:02:20;;;;;;;11.00;7.17;;;4.60;99.90;;;;;;5021105;28;20459;-80
2022/01/29 01:05:05;;;;;;;11.73;9.20;;;4.60;99.90;;;;;;5009165;28;20741;-80
2022/01/29 01:07:50;;;;;;;12.00;8.53;;;4.60;99.90;;;;;;5027301;28;20378;-80
2022/01/29 01:10:34;;;;;;;11.67;7.33;;;4.70;99.90;;;;;;5027682;28;20365;-79
2022/01/29 01:13:19;;;;;;;18.27;8.90;;;4.70;99.90;;;;;;5027057;28;20400;-80
2022/01/29 01:16:04;;;;;;;19.20;9.67;;;4.70;99.90;;;;;;5028289;28;20382;-81
2022/01/29 01:18:48;;;;;;;20.50;10.43;;;4.80;99.90;;;;;;5027615;28;20347;-80
2022/01/29 01:21:33;;;;;;;15.03;7.97;;;4.50;99.90;;;;;;5025714;28;20390;-81
2022/01/29 01:24:17;;;;;;;8.10;7.30;;;4.40;99.90;;;;;;5016793;28;20438;-81
2022/01/29 01:27:02;;;;;;;14.90;7.40;;;4.40;99.90;;;;;;5002189;28;20383;-81
2022/01/29 01:29:47;;;;;;;12.80;8.27;;;4.40;99.90;;;;;;5017200;28;20413;-82
2022/01/29 01:32:31;;;;;;;16.67;8.77;;;4.40;99.90;;;;;;5016415;28;20350;-81
2022/01/29 01:35:25;;;;;;;15.70;8.67;;;4.50;99.90;;;;;;5016191;28;20506;-81
2022/01/29 01:38:16;;;;;;;13.73;7.47;;;4.60;99.90;;;;;;5016666;28;20389;-81
2022/01/29 01:41:06;;;;;;;11.60;7.53;;;4.70;99.90;;;;;;5021550;28;20358;-81
2022/01/29 01:43:51;;;;;;;11.20;6.83;;;4.80;99.90;;;;;;5019476;28;20634;-82
2022/01/29 01:46:36;;;;;;;11.13;6.73;;;4.80;99.90;;;;;;5002720;28;20354;-81
2022/01/29 01:49:20;;;;;;;23.53;7.17;;;4.80;99.90;;;;;;5019380;28;20375;-80
2022/01/29 01:52:08;;;;;;;10.40;8.40;;;4.90;99.90;;;;;;5020560;28;20358;-80
2022/01/29 01:54:53;;;;;;;9.13;5.87;;;4.90;99.90;;;;;;5021624;28;20477;-81
2022/01/29 01:57:37;;;;;;;14.03;7.90;;;4.60;99.90;;;;;;5022924;28;20574;-81
2022/01/29 02:00:23;;;;;;;12.43;6.77;;;4.50;99.90;;;;;;5022937;28;20406;-81
2022/01/29 02:03:09;;;;;;;13.67;7.27;;;4.50;99.90;;;;;;5003411;28;20395;-81
2022/01/29 02:05:54;;;;;;;12.50;8.13;;;4.50;99.90;;;;;;5003250;28;20363;-81
2022/01/29 02:08:39;;;;;;;15.20;8.33;;;4.50;99.90;;;;;;5004751;28;20410;-81
2022/01/29 02:11:23;;;;;;;14.93;7.07;;;4.50;99.90;;;;;;5005368;28;20393;-81
2022/01/29 02:14:09;;;;;;;18.67;8.33;;;4.40;99.90;;;;;;5004163;28;20445;-81
2022/01/29 02:16:54;;;;;;;8.73;6.23;;;4.40;99.90;;;;;;5006005;28;20415;-81
2022/01/29 02:19:39;;;;;;;16.60;9.23;;;4.50;99.90;;;;;;5007084;28;20379;-81
2022/01/29 02:22:23;;;;;;;14.67;8.57;;;4.70;99.90;;;;;;5008217;28;20415;-81
2022/01/29 02:25:44;;;;;;;10.63;7.50;;;4.70;99.90;;;;;;5009578;28;20401;-80
2022/01/29 02:28:29;;;;;;;21.90;8.77;;;4.70;99.90;;;;;;5009455;28;20398;-81
2022/01/29 02:31:13;;;;;;;16.97;8.40;;;4.60;99.90;;;;;;5000160;28;20432;-81
2022/01/29 02:33:58;;;;;;;13.03;8.30;;;4.30;99.90;;;;;;4985143;28;20454;-81
2022/01/29 02:36:44;;;;;;;15.63;10.30;;;4.30;99.90;;;;;;4999764;28;20366;-81
2022/01/29 02:39:28;;;;;;;12.27;7.70;;;4.50;99.90;;;;;;4999186;28;20375;-81
2022/01/29 02:42:13;;;;;;;15.33;8.60;;;4.40;99.90;;;;;;4999317;28;20415;-80
2022/01/29 02:44:57;;;;;;;11.90;6.50;;;4.20;99.90;;;;;;4984856;28;20421;-81
2022/01/29 02:47:42;;;;;;;17.13;7.87;;;4.40;99.90;;;;;;4991981;28;20491;-81
2022/01/29 02:50:26;;;;;;;15.73;8.40;;;4.30;99.90;;;;;;4998939;28;20367;-81
2022/01/29 02:53:11;;;;;;;15.23;8.13;;;4.30;99.90;;;;;;4998942;28;20748;-81
2022/01/29 02:55:56;;;;;;;15.40;8.70;;;4.50;99.90;;;;;;4998647;28;20468;-81
2022/01/29 02:58:41;;;;;;;11.57;6.13;;;4.60;99.90;;;;;;4998927;28;20395;-81
2022/01/29 03:01:25;;;;;;;13.90;8.13;;;4.60;99.90;;;;;;5006449;28;20446;-81
2022/01/29 03:04:10;;;;;;;12.30;8.30;;;4.60;99.90;;;;;;5018354;28;20398;-81
2022/01/29 03:06:54;;;;;;;12.30;7.47;;;4.60;99.90;;;;;;5018333;28;20399;-81
2022/01/29 03:09:39;;;;;;;14.30;9.13;;;4.50;99.90;;;;;;5018865;28;20388;-80
2022/01/29 03:12:24;;;;;;;11.27;8.67;;;4.30;99.90;;;;;;5018049;28;20409;-81
2022/01/29 03:15:10;;;;;;;12.43;9.50;;;4.30;99.90;;;;;;5017785;28;20787;-81
2022/01/29 03:17:55;;;;;;;11.20;8.10;;;4.30;99.90;;;;;;5018386;28;20371;-81
2022/01/29 03:20:39;;;;;;;11.50;7.80;;;4.10;99.90;;;;;;5018424;28;20374;-81
2022/01/29 03:23:24;;;;;;;11.23;8.20;;;4.00;99.90;;;;;;5017800;28;20431;-81
2022/01/29 03:26:09;;;;;;;8.47;7.00;;;4.00;99.90;;;;;;5017938;28;20403;-80
2022/01/29 03:28:53;;;;;;;9.87;7.20;;;4.10;99.90;;;;;;5018071;28;20422;-81
2022/01/29 03:31:38;;;;;;;13.20;8.27;;;4.20;99.90;;;;;;5002396;28;20855;-80
2022/01/29 03:34:22;;;;;;;26.93;9.20;;;4.40;99.90;;;;;;4996410;28;20527;-81
2022/01/29 03:37:07;;;;;;;7.33;5.30;;;4.40;99.90;;;;;;5016057;28;20395;-81
2022/01/29 03:39:53;;;;;;;15.43;7.97;;;4.50;99.90;;;;;;5017595;28;20391;-81
2022/01/29 03:42:44;;;;;;;11.73;7.83;;;4.50;99.90;;;;;;5017738;28;20421;-80
2022/01/29 03:45:28;;;;;;;16.00;7.87;;;4.60;99.90;;;;;;5017551;28;20378;-80
2022/01/29 03:48:13;;;;;;;10.67;6.40;;;4.60;99.90;;;;;;5017796;28;20374;-80
2022/01/29 03:50:57;;;;;;;10.93;6.90;;;4.60;99.90;;;;;;5017537;28;20404;-81
2022/01/29 03:53:42;;;;;;;7.73;5.13;;;4.70;99.90;;;;;;5017387;28;20515;-81
2022/01/29 03:56:27;;;;;;;7.80;6.20;;;4.50;99.90;;;;;;5017488;28;20363;-81
2022/01/29 03:59:11;;;;;;;9.90;6.07;;;4.40;99.90;;;;;;5020531;28;20450;-81
2022/01/29 04:01:56;;;;;;;12.20;7.10;;;4.20;99.90;;;;;;5026352;28;20502;-80
2022/01/29 04:04:41;;;;;;;13.20;7.30;;;4.20;99.90;;;;;;5002531;28;20350;-81
2022/01/29 04:07:25;;;;;;;12.20;7.23;;;4.30;99.90;;;;;;5017387;28;20390;-81
2022/01/29 04:10:12;;;;;;;10.07;6.67;;;4.20;99.90;;;;;;5017538;28;20910;-81
2022/01/29 04:12:57;;;;;;;11.63;5.93;;;4.20;99.90;;;;;;5017023;28;20449;-81
2022/01/29 04:15:42;;;;;;;11.50;7.30;;;4.30;99.90;;;;;;5001696;28;20417;-81
2022/01/29 04:18:27;;;;;;;8.80;5.37;;;4.40;99.90;;;;;;5017030;28;20398;-81
2022/01/29 04:21:12;;;;;;;8.20;6.30;;;4.50;99.90;;;;;;5002706;28;20430;-81
2022/01/29 04:23:57;;;;;;;9.10;7.57;;;4.30;99.90;;;;;;5017597;28;20388;-82
2022/01/29 04:26:42;;;;;;;13.10;7.07;;;4.50;99.90;;;;;;5017257;28;20425;-81
2022/01/29 04:29:36;;;;;;;10.10;7.33;;;4.60;99.90;;;;;;5017642;28;20401;-81
2022/01/29 04:32:30;;;;;;;6.93;4.63;;;4.50;99.90;;;;;;5016624;28;20387;-81
2022/01/29 04:35:15;;;;;;;12.00;5.80;;;4.30;99.90;;;;;;5018103;28;20421;-81
2022/01/29 04:37:59;;;;;;;12.43;5.87;;;4.20;99.90;;;;;;5018587;28;20367;-81
2022/01/29 04:40:44;;;;;;;12.13;5.13;;;4.20;99.90;;;;;;5004253;28;20379;-82
2022/01/29 04:43:31;;;;;;;9.80;5.30;;;4.10;99.90;;;;;;5020737;28;20359;-81
2022/01/29 04:46:15;;;;;;;10.20;6.53;;;4.30;99.90;;;;;;5015129;28;20385;-81
2022/01/29 04:48:59;;;;;;;7.80;6.17;;;4.10;99.90;;;;;;5001176;28;20403;-81
2022/01/29 04:51:44;;;;;;;4.97;3.57;;;4.20;99.90;;;;;;5023313;28;20385;-81
2022/01/29 04:54:29;;;;;;;9.60;5.33;;;4.00;99.90;;;;;;5030148;28;20437;-80
2022/01/29 04:57:14;;;;;;;10.83;5.70;;;4.20;99.90;;;;;;5030038;28;20395;-79
2022/01/29 04:59:59;;;;;;;11.33;5.30;;;4.10;99.90;;;;;;5029475;28;20448;-79
2022/01/29 05:02:43;;;;;;;6.00;5.43;;;4.20;99.90;;;;;;5027881;28;20430;-80
2022/01/29 05:05:28;;;;;;;10.03;6.00;;;4.10;99.90;;;;;;5029521;28;20867;-79
2022/01/29 05:08:13;;;;;;;9.37;5.00;;;4.20;99.90;;;;;;5014512;28;20358;-79
2022/01/29 05:10:57;;;;;;;8.70;6.87;;;4.10;99.90;;;;;;5028532;28;20424;-80
2022/01/29 05:13:43;;;;;;;10.87;6.13;;;4.10;99.90;;;;;;5011224;28;20391;-81
2022/01/29 05:16:42;;;;;;;16.90;6.63;;;4.10;99.90;;;;;;5026618;28;20391;-81
2022/01/29 05:28:22;;;;;;;19.17;6.73;;;4.10;99.90;;;;;;5029246;28;20358;-80
2022/01/29 05:31:07;;;;;;;9.33;5.07;;;4.10;99.90;;;;;;5018395;28;20441;-79
2022/01/29 05:33:52;;;;;;;15.50;6.80;;;4.00;99.90;;;;;;5018414;28;20384;-80
2022/01/29 05:36:37;;;;;;;10.07;7.00;;;4.10;99.90;;;;;;5032511;28;20417;-80
2022/01/29 05:39:24;;;;;;;6.70;5.63;;;4.30;99.90;;;;;;5032449;28;20452;-80
2022/01/29 05:42:08;;;;;;;6.47;4.43;;;4.20;99.90;;;;;;5032470;28;20409;-80
2022/01/29 05:44:53;;;;;;;11.00;5.13;;;3.90;99.90;;;;;;5033324;28;20410;-79
2022/01/29 05:47:38;;;;;;;7.33;5.93;;;3.90;99.90;;;;;;5032295;28;20458;-80
2022/01/29 05:50:23;;;;;;;7.50;5.33;;;3.90;99.90;;;;;;5033798;28;20394;-79
2022/01/29 05:53:07;;;;;;;13.63;5.90;;;4.00;99.90;;;;;;5033050;28;20442;-79
2022/01/29 05:55:52;;;;;;;9.33;5.30;;;3.90;99.90;;;;;;5011282;28;20438;-80
2022/01/29 05:58:37;;;;;;;10.17;6.53;;;4.00;99.90;;;;;;5011887;28;20363;-80
2022/01/29 06:01:21;;;;;;;9.50;5.20;;;3.90;99.90;;;;;;5011692;28;20455;-79
2022/01/29 06:04:06;;;;;;;8.43;6.93;;;4.00;99.90;;;;;;5011393;28;20399;-79
2022/01/29 06:06:51;;;;;;;17.93;5.87;;;4.00;99.90;;;;;;5011198;28;20372;-79
2022/01/29 06:09:35;;;;;;;12.77;7.23;;;4.10;99.90;;;;;;5009057;28;20415;-79
2022/01/29 06:12:20;;;;;;;11.13;6.40;;;4.20;99.90;;;;;;4992987;28;20384;-81
2022/01/29 06:15:05;;;;;;;17.07;7.20;;;4.10;99.90;;;;;;5021074;28;20580;-81
2022/01/29 06:17:49;;;;;;;13.43;7.20;;;4.30;99.90;;;;;;5019671;28;20411;-81
2022/01/29 06:20:35;;;;;;;9.17;5.90;;;4.50;99.90;;;;;;5019650;28;20366;-81
2022/01/29 06:23:24;;;;;;;11.37;6.57;;;4.60;99.90;;;;;;5004193;28;20424;-81
2022/01/29 06:26:11;;;;;;;11.43;8.60;;;4.40;99.90;;;;;;5019625;28;20374;-81
2022/01/29 06:28:55;;;;;;;8.70;7.00;;;4.50;99.90;;;;;;5019882;28;20433;-81
2022/01/29 06:31:40;;;;;;;14.50;9.13;;;4.60;99.90;;;;;;5019816;28;20399;-81
2022/01/29 06:34:24;;;;;;;10.70;6.90;;;4.60;99.90;;;;;;5019681;28;20443;-81
2022/01/29 06:37:09;;;;;;;9.37;7.00;;;4.60;99.90;;;;;;5003507;28;20773;-81
2022/01/29 06:39:53;;;;;;;9.90;6.83;;;4.60;99.90;;;;;;5018482;28;20435;-81
2022/01/29 06:42:38;;;;;;;15.50;6.73;;;4.50;99.90;;;;;;5019383;28;20733;-81
2022/01/29 06:45:23;;;;;;;12.67;7.97;;;4.30;99.90;;;;;;5019644;28;20433;-81
2022/01/29 06:48:08;;;;;;;12.53;7.50;;;4.40;99.90;;;;;;5019362;28;20466;-81
2022/01/29 06:50:53;;;;;;;9.60;7.00;;;4.40;99.90;;;;;;5019236;28;20462;-81
2022/01/29 06:53:37;;;;;;;17.97;7.27;;;4.40;99.90;;;;;;5019758;28;20510;-81
2022/01/29 06:56:22;;;;;;;13.93;5.87;;;4.30;99.90;;;;;;5020353;28;20367;-81
2022/01/29 06:59:07;;;;;;;11.37;7.70;;;4.50;99.90;;;;;;5026185;28;20375;-79
2022/01/29 07:01:51;;;;;;;15.23;7.10;;;4.40;99.90;;;;;;5004873;28;20610;-81
2022/01/29 07:04:36;;;;;;;13.90;8.20;;;4.60;99.90;;;;;;5020397;28;20395;-81
2022/01/29 07:07:21;;;;;;;10.73;7.77;;;4.60;99.90;;;;;;5019247;28;20514;-81
2022/01/29 07:10:07;;;;;;;16.93;7.40;;;4.50;99.90;;;;;;5019982;28;20377;-81
2022/01/29 07:12:52;;;;;;;11.43;8.10;;;4.60;99.90;;;;;;5019137;28;20419;-81
2022/01/29 07:15:37;;;;;;;9.43;7.90;;;4.50;99.90;;;;;;5018599;28;20502;-81
2022/01/29 07:18:22;;;;;;;13.20;8.53;;;4.50;99.90;;;;;;5018850;28;20362;-80
2022/01/29 07:21:07;;;;;;;16.03;9.77;;;4.60;99.90;;;;;;5018571;28;20365;-81
2022/01/29 07:23:51;;;;;;;13.00;6.60;;;4.50;99.90;;;;;;5018305;28;20376;-81
2022/01/29 07:26:36;;;;;;;14.90;7.23;;;4.50;99.90;;;;;;5018188;28;20428;-81
2022/01/29 07:29:21;;;;;;;9.30;7.93;;;4.40;99.90;;;;;;5018114;28;20361;-81
2022/01/29 07:32:06;;;;;;;10.70;7.80;;;4.50;99.90;;;;;;5018504;28;20547;-81
2022/01/29 07:34:50;;;;;;;9.13;7.23;;;4.50;99.90;;;;;;5018356;28;20457;-81
2022/01/29 07:37:35;;;;;;;16.60;8.87;;;4.60;99.90;;;;;;5018533;28;20392;-81
2022/01/29 07:40:21;;;;;;;12.90;6.33;;;4.60;99.90;;;;;;5018786;28;20383;-81
2022/01/29 07:43:05;;;;;;;10.97;7.63;;;4.60;99.90;;;;;;5003551;28;20381;-81
2022/01/29 07:45:50;;;;;;;10.27;6.40;;;4.60;99.90;;;;;;5017720;28;20403;-81
2022/01/29 07:48:34;;;;;;;12.13;6.80;;;4.70;99.90;;;;;;5022939;28;20375;-79
2022/01/29 07:51:19;;;;;;;11.07;7.47;;;4.70;99.90;;;;;;5032588;28;20410;-79
2022/01/29 07:54:04;;;;;;;10.30;7.77;;;4.80;99.90;;;;;;5033570;28;20442;-79
2022/01/29 07:56:49;;;;;;;15.17;8.00;;;4.70;99.90;;;;;;5032822;28;20366;-79
2022/01/29 07:59:34;;;;;;;16.30;7.90;;;4.70;99.90;;;;;;5003618;28;20367;-81
2022/01/29 08:02:18;;;;;;;11.87;6.87;;;4.60;99.90;;;;;;5017473;28;20533;-81
2022/01/29 08:05:03;;;;;;;12.93;6.37;;;4.70;99.90;;;;;;5017403;28;20459;-81
2022/01/29 08:07:48;;;;;;;13.33;6.03;;;4.70;99.90;;;;;;5002913;28;20559;-81
2022/01/29 08:10:33;;;;;;;14.57;8.03;;;4.50;99.90;;;;;;5017384;28;20793;-81
2022/01/29 08:13:17;;;;;;;13.27;7.27;;;4.60;99.90;;;;;;5018196;28;20744;-81
2022/01/29 08:16:03;;;;;;;8.90;5.83;;;4.60;99.90;;;;;;5017277;28;20959;-81
2022/01/29 08:18:48;;;;;;;16.90;8.70;;;4.50;99.90;;;;;;5017710;28;20879;-79
2022/01/29 08:21:32;;;;;;;14.43;7.27;;;4.40;99.90;;;;;;5017735;28;20414;-80
2022/01/29 08:24:17;;;;;;;15.57;8.67;;;4.30;99.90;;;;;;5017932;28;20359;-81
2022/01/29 08:27:02;;;;;;;12.50;7.60;;;4.30;99.90;;;;;;5017016;28;20396;-81
2022/01/29 08:29:46;;;;;;;13.80;9.67;;;4.30;99.90;;;;;;5002611;28;20362;-81
2022/01/29 08:32:30;;;;;;;10.30;7.00;;;4.30;99.90;;;;;;5017278;28;20370;-81
2022/01/29 08:35:15;;;;;;;17.20;8.30;;;4.50;99.90;;;;;;5017188;28;20530;-81
2022/01/29 08:38:00;;;;;;;11.80;8.10;;;4.40;99.90;;;;;;5017857;28;20363;-81
2022/01/29 08:40:45;;;;;;;10.50;7.93;;;4.20;99.90;;;;;;4988958;28;20351;-81
2022/01/29 08:43:32;;;;;;;13.03;6.07;;;4.20;99.90;;;;;;5017895;28;20431;-82
2022/01/29 08:46:16;;;;;;;9.90;5.70;;;4.30;99.90;;;;;;5018429;28;20429;-82
2022/01/29 08:49:01;;;;;;;15.50;8.07;;;4.20;99.90;;;;;;5018252;28;20387;-82
2022/01/29 08:51:46;;;;;;;19.27;8.87;;;4.30;99.90;;;;;;5019448;28;20725;-81
2022/01/29 08:54:30;;;;;;;10.40;7.33;;;4.50;99.90;;;;;;5003630;28;20441;-81
2022/01/29 08:57:16;;;;;;;12.30;8.23;;;4.30;99.90;;;;;;4987986;28;20444;-81
2022/01/29 09:00:01;;;;;;;17.33;9.20;;;4.50;99.90;;;;;;5017972;28;20449;-82
2022/01/29 09:02:45;;;;;;;12.77;8.73;;;4.40;99.90;;;;;;5016287;28;20494;-81
2022/01/29 09:05:30;;;;;;;16.63;8.20;;;4.30;99.90;;;;;;5021215;28;20370;-82
2022/01/29 09:08:16;;;;;;;8.60;6.63;;;4.00;99.90;;;;;;5021378;28;20435;-80
2022/01/29 09:11:01;;;;;;;16.83;8.33;;;4.00;99.90;;;;;;5021572;28;20687;-81
2022/01/29 09:13:46;;;;;;;10.63;6.20;;;4.10;99.90;;;;;;5026436;28;20392;-80
2022/01/29 09:16:31;;;;;;;8.60;5.40;;;3.90;99.90;;;;;;5032114;28;20489;-80
2022/01/29 09:19:15;;;;;;;14.80;8.37;;;3.90;99.90;;;;;;5017075;28;20359;-81
2022/01/29 09:22:00;;;;;;;12.60;7.43;;;4.20;99.90;;;;;;5030969;28;20405;-80
2022/01/29 09:24:45;;;;;;;8.20;5.40;;;4.40;99.90;;;;;;5032295;28;20759;-80
2022/01/29 09:27:30;;;;;;;6.50;5.17;;;4.50;99.90;;;;;;5033814;28;20399;-80
2022/01/29 09:30:14;;;;;;;7.73;6.97;;;4.50;99.90;;;;;;5029637;28;20704;-80
2022/01/29 09:32:59;;;;;;;10.57;8.00;;;4.50;99.90;;;;;;5031973;28;20379;-79
2022/01/29 09:35:44;;;;;;;10.23;7.07;;;4.40;99.90;;;;;;5035400;28;20494;-79
2022/01/29 09:38:29;;;;;;;15.67;7.90;;;4.30;99.90;;;;;;5006544;28;20394;-79
2022/01/29 09:41:18;;;;;;;12.47;8.77;;;4.40;99.90;;;;;;5031248;28;20363;-79
2022/01/29 09:44:02;;;;;;;14.50;7.03;;;4.20;99.90;;;;;;5029043;28;20392;-80
2022/01/29 09:46:51;;;;;;;10.03;8.20;;;4.00;99.90;;;;;;5029963;28;20378;-80
2022/01/29 09:49:36;;;;;;;15.03;6.47;;;4.10;99.90;;;;;;5029450;28;20395;-79
2022/01/29 09:52:21;;;;;;;10.73;6.43;;;4.00;99.90;;;;;;5029056;28;20383;-81
2022/01/29 09:55:06;;;;;;;11.07;5.87;;;4.20;99.90;;;;;;5009936;28;20467;-81
2022/01/29 09:57:50;;;;;;;11.27;5.70;;;4.30;99.90;;;;;;5022198;28;20402;-81
2022/01/29 10:00:36;;;;;;;9.83;8.37;;;4.00;99.90;;;;;;5006202;28;20390;-81
2022/01/29 10:03:20;;;;;;;14.17;6.50;;;4.00;99.90;;;;;;5006583;28;20430;-80
2022/01/29 10:06:05;;;;;;;6.97;6.27;;;3.80;99.90;;;;;;5020681;28;20386;-81
2022/01/29 10:08:49;;;;;;;13.17;6.10;;;4.10;99.90;;;;;;5005215;28;20705;-80
2022/01/29 10:11:34;;;;;;;3.60;2.87;;;4.20;99.90;;;;;;5005459;28;20876;-80
2022/01/29 10:14:19;;;;;;;10.10;5.37;;;4.00;99.90;;;;;;5020179;28;20959;-80
2022/01/29 10:17:03;;;;;;;18.73;7.03;;;4.00;99.90;;;;;;5021083;28;20455;-80
2022/01/29 10:19:48;;;;;;;8.80;5.90;;;4.00;99.90;;;;;;5020640;28;20411;-80
2022/01/29 10:22:35;;;;;;;13.50;6.60;;;4.20;99.90;;;;;;5004956;28;20451;-81
2022/01/29 10:25:30;;;;;;;9.83;4.40;;;4.00;99.90;;;;;;5004962;28;20391;-80
2022/01/29 10:28:17;;;;;;;7.47;5.40;;;4.00;99.90;;;;;;5019543;28;20375;-81
2022/01/29 10:31:06;;;;;;;6.90;4.80;;;4.20;99.90;;;;;;5021575;28;20499;-80
2022/01/29 10:33:52;;;;;;;8.83;5.67;;;4.40;99.90;;;;;;5019314;28;20374;-80
2022/01/29 10:36:36;;;;;;;8.87;6.27;;;4.40;99.90;;;;;;5019426;28;20887;-80
2022/01/29 10:39:29;;;;;;;6.80;4.60;;;4.50;99.90;;;;;;5004025;28;20388;-81
2022/01/29 10:42:16;;;;;;;12.90;7.97;;;4.30;99.90;;;;;;5019737;28;20392;-80
2022/01/29 10:45:04;;;;;;;13.60;7.07;;;4.50;99.90;;;;;;5004761;28;20391;-81
2022/01/29 10:47:57;;;;;;;6.77;6.07;;;4.50;99.90;;;;;;5019392;28;20392;-80
2022/01/29 10:50:42;;;;;;;7.53;4.57;;;4.30;99.90;;;;;;5019763;28;20416;-80
2022/01/29 10:53:27;;;;;;;6.70;4.67;;;4.30;99.90;;;;;;5019401;28;20392;-82
2022/01/29 10:56:11;;;;;;;4.60;3.53;;;4.50;99.90;;;;;;5004271;28;20490;-82
2022/01/29 10:58:56;;;;;;;10.27;4.90;;;4.30;99.90;;;;;;5019801;28;20395;-82
2022/01/29 11:01:41;;;;;;;7.80;4.73;;;4.40;99.90;;;;;;5004481;28;20463;-82
2022/01/29 11:04:28;;;;;;;8.47;5.83;;;4.60;99.90;;;;;;5004233;28;20784;-82
2022/01/29 11:07:17;;;;;;;7.83;5.20;;;4.70;99.90;;;;;;5004670;28;20366;-82
2022/01/29 11:10:05;;;;;;;7.77;4.33;;;4.40;99.90;;;;;;5019327;28;20388;-80
2022/01/29 11:12:50;;;;;;;6.67;4.90;;;4.40;99.90;;;;;;5004657;28;20399;-82
2022/01/29 11:15:34;;;;;;;10.30;5.43;;;4.40;99.90;;;;;;5018889;28;20799;-82
2022/01/29 11:18:19;;;;;;;5.60;4.17;;;4.40;99.90;;;;;;5019455;28;20403;-81
2022/01/29 11:21:04;;;;;;;4.80;4.30;;;4.70;99.90;;;;;;5005516;28;20411;-82
2022/01/29 11:23:50;;;;;;;7.17;5.00;;;4.70;99.90;;;;;;5019040;28;20744;-82
2022/01/29 11:26:35;;;;;;;6.70;5.40;;;4.70;99.90;;;;;;5019360;28;20484;-82
2022/01/29 11:29:30;;;;;;;9.77;5.00;;;4.90;99.90;;;;;;4991341;28;20901;-82
2022/01/29 11:32:27;;;;;;;7.90;4.63;;;4.80;99.90;;;;;;5008937;28;20394;-80
2022/01/29 11:35:16;;;;;;;8.10;4.30;;;4.80;99.90;;;;;;5024767;28;20438;-79
2022/01/29 11:38:08;;;;;;;6.30;4.07;;;4.60;99.90;;;;;;5009527;28;20805;-81
2022/01/29 11:40:58;;;;;;;3.77;3.27;;;4.50;99.90;;;;;;5026440;28;20390;-80
2022/01/29 11:43:43;;;;;;;8.87;5.30;;;4.70;99.90;;;;;;5027789;28;20388;-79
2022/01/29 11:46:32;;;;;;;6.80;5.20;;;4.80;99.90;;;;;;5027117;28;20378;-80
2022/01/29 11:49:18;;;;;;;4.23;3.30;;;4.70;99.90;;;;;;5026756;28;20439;-79
2022/01/29 11:52:22;;;;;;;6.47;4.63;;;4.60;99.90;;;;;;5026146;28;20391;-81
2022/01/29 11:55:07;;;;;;;8.13;4.43;;;4.70;99.90;;;;;;5012988;28;20546;-80
2022/01/29 11:58:19;;;;;;;4.73;4.27;;;4.90;99.90;;;;;;5026151;28;20365;-81
2022/01/29 12:01:04;;;;;;;5.33;4.30;;;5.00;99.90;;;;;;5027654;28;20517;-78
2022/01/29 12:03:51;;;;;;;5.83;4.00;;;5.10;99.90;;;;;;5012232;28;20384;-78
2022/01/29 12:06:42;;;;;;;6.83;4.13;;;5.00;99.90;;;;;;5027645;28;20415;-80
2022/01/29 12:09:29;;;;;;;7.57;4.97;;;5.10;99.90;;;;;;5027570;28;20443;-79
2022/01/29 12:12:24;;;;;;;5.10;4.30;;;4.80;99.90;;;;;;5013131;28;20391;-80
2022/01/29 12:15:34;;;;;;;4.33;3.50;;;5.10;99.90;;;;;;5023021;28;20514;-81
2022/01/29 12:18:31;;;;;;;5.40;3.83;;;4.90;99.90;;;;;;5020268;28;20384;-81
2022/01/29 12:21:23;;;;;;;4.60;4.20;;;4.90;99.90;;;;;;4990242;28;20411;-80
2022/01/29 12:24:08;;;;;;;4.80;3.67;;;5.20;99.90;;;;;;5018506;28;20399;-80
2022/01/29 12:26:55;;;;;;;8.83;4.00;;;4.90;99.90;;;;;;5012686;28;20399;-81
2022/01/29 12:29:40;;;;;;;5.03;4.03;;;4.80;99.90;;;;;;4990065;28;20391;-82
2022/01/29 12:32:24;;;;;;;6.97;4.00;;;5.00;99.90;;;;;;5017644;28;20407;-81
2022/01/29 12:35:09;;;;;;;6.20;4.23;;;5.20;99.90;;;;;;5017743;28;20482;-82
2022/01/29 12:37:54;;;;;;;8.40;4.23;;;5.20;99.90;;;;;;5004514;28;20404;-81
2022/01/29 12:40:41;;;;;;;5.73;3.70;;;5.30;99.90;;;;;;5009491;28;20388;-82
2022/01/29 12:43:29;;;;;;;4.17;3.90;;;5.20;99.90;;;;;;5022186;28;20391;-82
2022/01/29 12:46:16;;;;;;;6.70;4.20;;;5.00;99.90;;;;;;5018883;28;20367;-81
2022/01/29 12:49:07;;;;;;;6.73;4.30;;;5.10;99.90;;;;;;5021998;28;20370;-82
2022/01/29 12:51:56;;;;;;;8.43;4.40;;;5.10;99.90;;;;;;5023658;28;20916;-82
2022/01/29 12:55:05;;;;;;;4.40;4.00;;;5.10;99.90;;;;;;5002233;28;20447;-81
2022/01/29 12:57:51;;;;;;;3.67;3.37;;;5.10;99.90;;;;;;5002635;28;20412;-81
2022/01/29 13:00:36;;;;;;;3.03;2.73;;;5.10;99.90;;;;;;5018551;28;20387;-82
2022/01/29 13:03:27;;;;;;;4.00;3.00;;;5.00;99.90;;;;;;5025848;28;20471;-81
2022/01/29 13:06:14;;;;;;;3.67;3.37;;;5.20;99.90;;;;;;5026952;28;20473;-80
2022/01/29 13:09:18;;;;;;;9.30;5.10;;;5.20;99.90;;;;;;5025829;28;20370;-80
2022/01/29 13:12:12;;;;;;;3.30;2.93;;;5.40;99.90;;;;;;5010743;28;20378;-80
2022/01/29 13:14:56;;;;;;;6.57;4.30;;;5.20;99.90;;;;;;5010061;28;20445;-81
2022/01/29 13:17:43;;;;;;;6.27;4.23;;;5.30;99.90;;;;;;5025397;28;20395;-81
2022/01/29 13:20:29;;;;;;;4.50;3.90;;;5.40;99.90;;;;;;4997373;28;20499;-81
2022/01/29 13:23:15;;;;;;;4.57;3.80;;;5.10;99.90;;;;;;5025347;28;20459;-81
2022/01/29 13:26:16;;;;;;;3.93;3.60;;;5.40;99.90;;;;;;5011524;28;20454;-81
2022/01/29 13:29:06;;;;;;;3.37;3.07;;;5.40;99.90;;;;;;5026488;28;20419;-81
2022/01/29 13:31:50;;;;;;;5.13;4.03;;;5.30;99.90;;;;;;5026011;28;20416;-81
2022/01/29 13:34:38;;;;;;;5.43;3.43;;;5.50;99.90;;;;;;5026868;28;20425;-81
2022/01/29 13:37:33;;;;;;;5.33;3.27;;;5.60;99.90;;;;;;5011282;28;20375;-81
2022/01/29 13:40:19;;;;;;;5.70;4.30;;;5.50;99.90;;;;;;5023942;28;20448;-81
2022/01/29 13:43:07;;;;;;;5.43;3.97;;;5.40;99.90;;;;;;5025862;28;20284;-80
2022/01/29 13:45:55;;;;;;;3.30;3.00;;;5.40;99.90;;;;;;5026260;28;20419;-80
2022/01/29 13:48:42;;;;;;;4.93;3.87;;;5.50;99.90;;;;;;5026165;28;20406;-80
2022/01/29 13:51:42;;;;;;;3.70;2.60;;;5.40;99.90;;;;;;5030218;28;20374;-81
2022/01/29 13:54:26;;;;;;;6.47;3.23;;;5.20;99.90;;;;;;5029930;28;20455;-80
2022/01/29 13:57:11;;;;;;;4.50;3.20;;;5.20;99.90;;;;;;5013346;28;20391;-80
2022/01/29 14:00:00;;;;;;;6.97;3.80;;;5.40;99.90;;;;;;5027956;28;20739;-81
2022/01/29 14:02:48;;;;;;;4.73;3.83;;;5.40;99.90;;;;;;5028751;28;20434;-80
2022/01/29 14:05:33;;;;;;;3.60;3.30;;;5.20;99.90;;;;;;5014929;28;20362;-81
2022/01/29 14:08:22;;;;;;;4.57;3.40;;;5.30;99.90;;;;;;5034262;28;20451;-81
2022/01/29 14:11:14;;;;;;;6.17;3.83;;;5.40;99.90;;;;;;5015342;28;20446;-82
2022/01/29 14:13:58;;;;;;;3.40;3.10;;;5.30;99.90;;;;;;5016793;28;20398;-81
2022/01/29 14:16:43;;;;;;;3.73;2.60;;;5.20;99.90;;;;;;5015335;28;20370;-81
2022/01/29 14:19:29;;;;;;;3.67;2.80;;;5.20;99.90;;;;;;5030360;28;20374;-81
2022/01/29 14:22:14;;;;;;;3.47;2.83;;;5.30;99.90;;;;;;5032739;28;20399;-81
2022/01/29 14:25:01;;;;;;;3.73;3.20;;;5.40;99.90;;;;;;5032322;28;20392;-80
2022/01/29 14:27:47;;;;;;;3.90;3.50;;;5.40;99.90;;;;;;5015202;28;20362;-81
2022/01/29 14:30:31;;;;;;;3.43;3.10;;;5.30;99.90;;;;;;5029094;28;20395;-81
2022/01/29 14:33:16;;;;;;;4.10;3.80;;;5.40;99.90;;;;;;5028607;28;20450;-81
2022/01/29 14:36:00;;;;;;;2.63;2.43;;;5.40;99.90;;;;;;5028741;28;20521;-80
2022/01/29 14:38:45;;;;;;;2.40;2.20;;;5.20;99.90;;;;;;4985914;28;20395;-80